Time;durP1;ratioP1;P1;durP2;ratioP2;P2;SDS_P1;SDS_P2;PMS_P1;PMS_P2;Temp;Humidity;BMP_temperature;BMP_pressure;BME280_temperature;BME280_humidity;BME280_pressure;Samples;Min_cycle;Max_cycle;Signal;HPM_P1;HPM_P2
2022/05/19 00:04:40;;;;;;;4.03;2.08;;;24.70;69.30;;;;;;10983655;32;20015;-71
2022/05/19 00:17:47;;;;;;;3.10;2.42;;;24.60;69.40;;;;;;10905119;32;20053;-71
2022/05/19 00:23:49;;;;;;;4.30;1.83;;;24.50;70.10;;;;;;10904117;32;20027;-71
2022/05/19 00:29:51;;;;;;;3.15;2.15;;;24.50;70.20;;;;;;10901744;32;20023;-71
2022/05/19 00:35:56;;;;;;;2.60;1.30;;;24.60;70.20;;;;;;10904145;32;20399;-71
2022/05/19 00:48:24;;;;;;;3.08;2.08;;;24.50;70.70;;;;;;10967016;32;20031;-71
2022/05/19 00:54:41;;;;;;;2.42;1.50;;;24.30;70.80;;;;;;10982170;32;20416;-71
2022/05/19 01:00:45;;;;;;;1.95;1.12;;;24.40;70.50;;;;;;10981937;32;20054;-71
2022/05/19 01:06:49;;;;;;;2.47;1.20;;;24.40;70.70;;;;;;10981513;32;20023;-71
2022/05/19 01:12:53;;;;;;;2.00;1.37;;;24.30;70.30;;;;;;10984109;27;20046;-71
2022/05/19 01:18:57;;;;;;;1.65;1.10;;;24.30;70.20;;;;;;10942918;32;20183;-71
2022/05/19 01:24:58;;;;;;;3.35;1.55;;;24.20;70.40;;;;;;10943368;32;20027;-71
2022/05/19 01:31:01;;;;;;;2.45;1.70;;;24.10;70.80;;;;;;10939398;32;20011;-70
2022/05/19 01:37:03;;;;;;;1.58;0.88;;;24.10;70.80;;;;;;10942991;32;20055;-71
2022/05/19 01:43:12;;;;;;;2.72;1.30;;;24.00;71.10;;;;;;10942735;32;20035;-71
2022/05/19 01:49:30;;;;;;;2.50;1.40;;;23.90;71.60;;;;;;10942523;32;20402;-71
2022/05/19 01:55:37;;;;;;;3.27;1.43;;;23.90;71.60;;;;;;10942423;32;20057;-71
2022/05/19 02:01:44;;;;;;;3.10;0.90;;;23.80;71.40;;;;;;10938534;32;20030;-71
2022/05/19 02:07:50;;;;;;;0.98;0.93;;;23.70;71.40;;;;;;10942114;32;20127;-70
2022/05/19 02:13:54;;;;;;;2.00;1.48;;;23.70;71.50;;;;;;10942013;32;20049;-71
2022/05/19 02:20:03;;;;;;;1.52;1.25;;;23.70;71.40;;;;;;10941903;32;20409;-71
2022/05/19 02:26:05;;;;;;;1.73;0.93;;;23.60;71.20;;;;;;10942937;32;20019;-71
2022/05/19 02:32:08;;;;;;;1.27;0.73;;;23.50;71.30;;;;;;10949466;32;20399;-71
2022/05/19 02:38:11;;;;;;;1.77;1.12;;;23.30;71.50;;;;;;10949227;32;20019;-71
2022/05/19 02:44:14;;;;;;;2.85;1.42;;;23.20;71.80;;;;;;10949046;32;20319;-71
2022/05/19 02:50:17;;;;;;;0.85;0.77;;;23.20;71.80;;;;;;10947145;32;20053;-70
2022/05/19 02:56:19;;;;;;;2.12;1.50;;;23.20;72.20;;;;;;10948536;32;20510;-70
2022/05/19 03:02:21;;;;;;;0.93;0.93;;;23.10;72.60;;;;;;10948322;32;20045;-71
2022/05/19 03:08:23;;;;;;;1.37;0.95;;;23.00;73.40;;;;;;10944853;32;20054;-71
2022/05/19 03:14:26;;;;;;;1.90;1.12;;;23.00;73.50;;;;;;10935108;32;20042;-71
2022/05/19 03:20:28;;;;;;;2.37;0.93;;;23.00;73.10;;;;;;10947705;32;20027;-70
2022/05/19 03:26:30;;;;;;;1.52;1.10;;;22.90;73.20;;;;;;10947462;32;20382;-70
2022/05/19 03:32:43;;;;;;;1.33;0.80;;;22.80;73.40;;;;;;10947345;32;20104;-71
2022/05/19 03:38:45;;;;;;;1.52;0.90;;;22.80;73.30;;;;;;10946689;32;20061;-71
2022/05/19 03:44:47;;;;;;;3.83;1.20;;;22.70;73.60;;;;;;10942611;32;20050;-70
2022/05/19 03:50:49;;;;;;;1.12;0.88;;;22.70;73.70;;;;;;10946673;32;20061;-71
2022/05/19 03:56:51;;;;;;;3.05;1.60;;;22.60;72.60;;;;;;10946723;32;20030;-70
2022/05/19 04:02:53;;;;;;;1.95;1.20;;;22.50;72.50;;;;;;10942122;32;20051;-73
2022/05/19 04:08:55;;;;;;;1.40;1.17;;;22.40;72.50;;;;;;10946223;32;20027;-73
2022/05/19 04:14:57;;;;;;;2.62;1.27;;;22.40;72.50;;;;;;10941667;32;20068;-74
2022/05/19 04:20:59;;;;;;;1.27;0.95;;;22.40;72.80;;;;;;10932366;32;20049;-73
2022/05/19 04:27:03;;;;;;;3.70;1.45;;;22.50;72.70;;;;;;10945395;32;20039;-73
2022/05/19 04:33:05;;;;;;;1.67;1.15;;;22.50;72.60;;;;;;10944782;32;20426;-73
2022/05/19 04:39:07;;;;;;;2.15;1.15;;;22.50;73.20;;;;;;10945103;32;20022;-73
2022/05/19 04:45:13;;;;;;;2.12;1.23;;;22.60;73.80;;;;;;10944892;32;20053;-73
2022/05/19 04:51:16;;;;;;;5.57;2.22;;;22.60;74.00;;;;;;10943990;32;20019;-73
2022/05/19 04:57:48;;;;;;;1.73;1.15;;;22.70;73.90;;;;;;10944911;32;20050;-73
2022/05/19 05:04:19;;;;;;;2.62;1.40;;;22.80;73.10;;;;;;10943017;32;20049;-73
2022/05/19 05:10:21;;;;;;;2.22;1.00;;;22.70;73.10;;;;;;10925786;32;20030;-73
2022/05/19 05:16:47;;;;;;;2.08;1.42;;;22.60;73.00;;;;;;10942929;32;20054;-73
2022/05/19 05:22:49;;;;;;;2.67;1.35;;;22.70;72.90;;;;;;10940126;32;20053;-73
2022/05/19 05:28:52;;;;;;;0.82;0.82;;;22.70;73.50;;;;;;10929666;32;20053;-73
2022/05/19 05:34:55;;;;;;;15.77;1.37;;;22.80;73.40;;;;;;10943120;32;20081;-72
2022/05/19 05:40:59;;;;;;;3.75;1.70;;;23.00;73.20;;;;;;10942980;32;20445;-72
2022/05/19 05:47:01;;;;;;;3.47;1.30;;;22.90;73.10;;;;;;10942684;32;20023;-72
2022/05/19 05:53:12;;;;;;;2.03;1.25;;;22.80;73.60;;;;;;10942593;32;20429;-72
2022/05/19 05:59:16;;;;;;;1.02;0.95;;;22.80;73.20;;;;;;10942161;32;20014;-73
2022/05/19 06:05:26;;;;;;;0.98;0.90;;;22.80;73.10;;;;;;10938883;32;20026;-73
2022/05/19 06:11:29;;;;;;;1.95;1.15;;;22.90;72.80;;;;;;10922524;32;20035;-73
2022/05/19 06:17:43;;;;;;;1.45;1.30;;;23.10;72.60;;;;;;10930001;32;20031;-73
2022/05/19 06:23:45;;;;;;;2.72;1.30;;;23.30;72.20;;;;;;10941289;32;20053;-72
2022/05/19 06:29:47;;;;;;;1.77;1.10;;;23.40;71.60;;;;;;10941581;32;20035;-73
2022/05/19 06:35:50;;;;;;;1.33;0.80;;;23.60;71.30;;;;;;10940121;32;20039;-71
2022/05/19 06:42:20;;;;;;;1.50;1.00;;;23.70;71.20;;;;;;10751301;33;20024;-72
2022/05/19 06:48:22;;;;;;;1.58;1.10;;;23.70;70.80;;;;;;10753021;33;20172;-73
2022/05/19 06:54:24;;;;;;;1.40;1.15;;;23.80;70.60;;;;;;10748242;33;20060;-73
2022/05/19 07:00:28;;;;;;;3.65;0.93;;;23.90;70.20;;;;;;10911894;32;20403;-73
2022/05/19 07:06:31;;;;;;;1.52;0.93;;;24.00;70.00;;;;;;10941027;32;20342;-72
2022/05/19 07:12:37;;;;;;;0.65;0.65;;;24.10;69.50;;;;;;10942677;32;20065;-72
2022/05/19 07:18:39;;;;;;;2.22;1.40;;;24.20;68.50;;;;;;10947794;32;20023;-73
2022/05/19 07:24:41;;;;;;;3.08;1.70;;;24.30;68.60;;;;;;10948127;32;20024;-72
2022/05/19 07:30:46;;;;;;;2.25;1.02;;;24.30;67.50;;;;;;10947330;32;20050;-71
2022/05/19 07:37:36;;;;;;;1.75;0.93;;;24.40;67.60;;;;;;10947721;32;20342;-72
2022/05/19 07:43:39;;;;;;;2.47;1.17;;;24.50;67.40;;;;;;10947615;32;20027;-72
2022/05/19 07:49:45;;;;;;;5.78;1.77;;;24.70;67.50;;;;;;10937551;32;20027;-73
2022/05/19 07:55:48;;;;;;;1.70;1.17;;;24.70;66.00;;;;;;10945670;32;20031;-73
2022/05/19 08:01:51;;;;;;;1.42;1.17;;;24.70;65.90;;;;;;10947255;32;20019;-72
2022/05/19 08:07:56;;;;;;;2.05;1.10;;;24.70;65.60;;;;;;10946461;32;20023;-73
2022/05/19 08:20:29;;;;;;;3.25;1.00;;;24.90;65.10;;;;;;10946243;32;20027;-72
2022/05/19 08:26:32;;;;;;;2.50;1.17;;;25.00;64.60;;;;;;10932329;32;20027;-72
2022/05/19 08:32:34;;;;;;;3.45;1.42;;;25.00;62.90;;;;;;10932317;32;20081;-72
2022/05/19 08:38:53;;;;;;;1.52;1.42;;;25.00;63.30;;;;;;10928276;32;20035;-72
2022/05/19 08:44:59;;;;;;;1.67;1.30;;;25.10;62.00;;;;;;10945667;32;20046;-72
2022/05/19 08:51:07;;;;;;;2.03;1.42;;;25.10;61.20;;;;;;10931492;32;20058;-73
2022/05/19 08:57:30;;;;;;;3.62;1.48;;;25.30;60.50;;;;;;10866258;32;20058;-71
2022/05/19 09:03:51;;;;;;;3.62;1.30;;;25.50;60.40;;;;;;10861596;32;20039;-73
2022/05/19 09:10:07;;;;;;;6.25;1.65;;;25.50;59.30;;;;;;10867349;32;20368;-71
2022/05/19 09:16:21;;;;;;;1.75;1.10;;;25.60;58.60;;;;;;10327228;27;18679884;-72
2022/05/19 09:22:26;;;;;;;10.50;2.22;;;25.60;58.30;;;;;;10901953;32;20019;-73
2022/05/19 09:28:29;;;;;;;3.40;1.42;;;25.70;57.80;;;;;;10937961;32;20019;-74
2022/05/19 09:34:34;;;;;;;1.95;1.00;;;25.80;56.60;;;;;;10943131;32;20048;-73
2022/05/19 09:40:40;;;;;;;2.72;1.62;;;25.80;56.00;;;;;;10936265;32;20042;-74
2022/05/19 09:46:48;;;;;;;3.12;1.33;;;25.90;55.20;;;;;;10937974;32;20054;-75
2022/05/19 09:52:50;;;;;;;5.68;1.83;;;26.10;55.30;;;;;;10942506;32;20045;-75
2022/05/19 09:59:07;;;;;;;1.25;1.00;;;26.30;54.70;;;;;;10938320;32;20022;-74
2022/05/19 10:05:48;;;;;;;5.12;1.40;;;26.30;52.70;;;;;;10942396;32;20046;-75
2022/05/19 10:12:00;;;;;;;5.25;1.20;;;26.30;52.50;;;;;;10753540;32;20055;-74
2022/05/19 10:18:22;;;;;;;1.87;1.20;;;26.60;51.50;;;;;;10752665;32;20024;-74
2022/05/19 10:24:47;;;;;;;1.85;0.93;;;26.70;51.30;;;;;;10752445;32;20072;-74
2022/05/19 10:31:14;;;;;;;3.75;1.67;;;26.70;50.90;;;;;;10752369;32;20028;-74
2022/05/19 10:37:40;;;;;;;2.17;1.00;;;26.80;50.10;;;;;;10752441;32;20024;-74
2022/05/19 10:44:15;;;;;;;2.85;1.50;;;27.20;49.60;;;;;;10762126;32;20057;-74
2022/05/19 10:50:32;;;;;;;1.60;0.95;;;27.40;47.30;;;;;;10946799;32;20335;-74
2022/05/19 10:56:34;;;;;;;2.65;1.40;;;27.50;47.70;;;;;;10948731;32;20027;-74
2022/05/19 11:03:09;;;;;;;3.12;1.80;;;27.70;47.60;;;;;;10948435;32;20015;-74
2022/05/19 11:09:13;;;;;;;4.15;1.35;;;28.00;46.40;;;;;;10945058;32;20367;-74
2022/05/19 11:15:28;;;;;;;4.45;1.67;;;28.20;46.60;;;;;;10942097;32;20038;-75
2022/05/19 11:21:33;;;;;;;6.75;1.95;;;28.30;46.80;;;;;;10940767;32;20031;-76
2022/05/19 11:27:55;;;;;;;8.18;2.03;;;28.50;46.00;;;;;;10947984;32;20023;-73
2022/05/19 11:34:15;;;;;;;4.75;1.70;;;28.70;46.50;;;;;;10947420;32;20035;-74
2022/05/19 11:40:23;;;;;;;2.00;1.25;;;28.80;46.50;;;;;;10946159;32;20061;-75
2022/05/19 11:46:40;;;;;;;3.08;1.70;;;29.20;45.90;;;;;;10946170;32;20031;-75
2022/05/19 11:59:30;;;;;;;5.00;2.55;;;29.60;44.90;;;;;;10756405;33;20032;-76
2022/05/19 12:05:32;;;;;;;3.10;1.58;;;29.50;44.70;;;;;;10752690;33;20054;-74
2022/05/19 12:11:33;;;;;;;1.33;1.15;;;29.50;44.20;;;;;;10752548;33;20349;-74
2022/05/19 12:17:59;;;;;;;4.40;1.42;;;29.50;44.20;;;;;;10756621;33;20032;-75
2022/05/19 12:24:10;;;;;;;3.22;1.73;;;29.60;44.10;;;;;;10757154;33;20036;-74
2022/05/19 12:37:06;;;;;;;3.08;1.45;;;29.70;43.30;;;;;;10928729;32;20420;-74
2022/05/19 12:43:19;;;;;;;4.07;1.20;;;29.80;43.10;;;;;;10945386;32;20019;-76
2022/05/19 12:49:28;;;;;;;3.10;1.70;;;29.60;43.50;;;;;;10944956;32;20285;-75
2022/05/19 12:55:45;;;;;;;6.60;2.00;;;29.50;43.30;;;;;;10940437;32;20023;-75
2022/05/19 13:01:52;;;;;;;5.20;2.25;;;29.50;43.00;;;;;;10931326;32;20033;-73
2022/05/19 13:08:37;;;;;;;3.42;1.92;;;29.50;44.10;;;;;;10943921;32;20061;-72
2022/05/19 13:14:54;;;;;;;3.03;1.90;;;29.30;43.90;;;;;;10939273;32;20095;-73
2022/05/19 13:21:44;;;;;;;1.85;1.30;;;29.30;44.30;;;;;;10943483;32;20434;-73
2022/05/19 13:34:07;;;;;;;3.83;1.35;;;29.30;44.10;;;;;;10753825;33;20028;-73
2022/05/19 13:40:28;;;;;;;4.37;1.60;;;29.40;43.90;;;;;;10751923;33;20017;-73
2022/05/19 13:46:38;;;;;;;3.75;1.20;;;29.50;43.80;;;;;;10747763;33;20052;-74
2022/05/19 13:52:52;;;;;;;3.60;1.58;;;29.30;43.70;;;;;;10745767;33;20341;-75
2022/05/19 13:58:57;;;;;;;2.28;1.12;;;29.30;43.70;;;;;;10740838;33;20183;-74
2022/05/19 14:05:00;;;;;;;2.53;1.42;;;29.30;43.70;;;;;;10931320;32;20019;-73
2022/05/19 14:11:03;;;;;;;9.65;1.80;;;29.30;43.80;;;;;;10941780;32;20031;-73
2022/05/19 14:17:57;;;;;;;7.87;1.40;;;29.20;43.80;;;;;;10942031;32;20027;-73
2022/05/19 14:24:34;;;;;;;3.28;1.62;;;29.00;44.60;;;;;;10950224;32;20355;-73
2022/05/19 14:30:41;;;;;;;2.87;1.33;;;28.90;45.00;;;;;;10954022;32;20057;-73
2022/05/19 14:37:48;;;;;;;2.55;1.23;;;28.90;45.60;;;;;;10953987;32;20041;-73
2022/05/19 14:43:53;;;;;;;2.87;1.08;;;28.80;45.90;;;;;;10921425;32;20419;-73
2022/05/19 14:50:04;;;;;;;8.13;1.73;;;28.80;45.70;;;;;;10916469;32;20077;-74
2022/05/19 14:56:14;;;;;;;1.48;1.08;;;28.90;46.70;;;;;;10915968;32;20049;-74
2022/05/19 15:02:17;;;;;;;1.77;1.02;;;28.90;45.70;;;;;;10902707;32;20394;-73
2022/05/19 15:08:20;;;;;;;3.78;1.75;;;28.90;45.20;;;;;;10916004;32;20024;-73
2022/05/19 15:14:22;;;;;;;5.00;1.55;;;28.90;44.60;;;;;;10902808;32;20020;-73
2022/05/19 15:20:27;;;;;;;3.08;1.00;;;28.90;45.50;;;;;;10915732;32;20027;-73
2022/05/19 15:26:30;;;;;;;5.28;1.30;;;28.90;45.00;;;;;;10925113;32;20422;-73
2022/05/19 15:32:44;;;;;;;2.40;1.60;;;29.00;45.20;;;;;;10951598;32;20069;-72
2022/05/19 15:38:58;;;;;;;3.25;1.40;;;29.10;46.00;;;;;;10946786;32;20027;-72
2022/05/19 15:45:01;;;;;;;4.60;1.48;;;29.00;46.70;;;;;;10947144;32;20050;-73
2022/05/19 15:51:05;;;;;;;4.37;1.87;;;29.00;46.80;;;;;;10947024;32;20339;-74
2022/05/19 15:57:07;;;;;;;5.00;1.45;;;28.90;48.30;;;;;;10942382;32;20027;-73
2022/05/19 16:03:17;;;;;;;2.62;1.20;;;28.80;48.70;;;;;;10942267;32;20442;-73
2022/05/19 16:09:19;;;;;;;5.18;1.77;;;28.70;48.60;;;;;;10945827;32;20343;-73
2022/05/19 16:15:22;;;;;;;3.92;1.25;;;28.80;47.80;;;;;;10943220;32;20053;-73
2022/05/19 16:21:30;;;;;;;2.17;1.00;;;28.80;47.50;;;;;;10945561;32;20070;-72
2022/05/19 16:27:40;;;;;;;2.08;1.60;;;28.90;47.30;;;;;;10920040;32;20035;-73
2022/05/19 16:33:42;;;;;;;1.92;1.20;;;28.80;47.70;;;;;;10907173;32;20152;-73
2022/05/19 16:39:45;;;;;;;1.37;0.85;;;28.80;47.70;;;;;;10909472;32;20053;-75
2022/05/19 16:45:47;;;;;;;2.28;1.23;;;28.80;47.70;;;;;;10940722;32;20069;-73
2022/05/19 16:51:49;;;;;;;2.85;1.85;;;28.70;47.90;;;;;;10944837;32;20422;-72
2022/05/19 16:58:08;;;;;;;3.40;1.50;;;28.70;47.50;;;;;;10944100;32;20024;-74
2022/05/19 17:04:10;;;;;;;3.27;1.97;;;28.60;47.60;;;;;;10943945;32;20019;-73
2022/05/19 17:10:21;;;;;;;2.50;1.48;;;28.60;48.30;;;;;;10916642;32;20300;-72
2022/05/19 17:16:27;;;;;;;2.78;1.52;;;28.40;49.30;;;;;;11002923;27;20025;-73
2022/05/19 17:22:29;;;;;;;1.45;1.02;;;28.30;49.60;;;;;;11050835;32;20068;-73
2022/05/19 17:28:32;;;;;;;3.53;1.10;;;28.20;50.70;;;;;;11017092;32;20049;-72
2022/05/19 17:34:34;;;;;;;1.52;1.12;;;28.20;50.80;;;;;;11055429;32;20022;-75
2022/05/19 17:40:37;;;;;;;2.53;1.10;;;28.40;50.50;;;;;;11045449;32;20357;-76
2022/05/19 17:46:41;;;;;;;3.53;1.67;;;29.10;50.20;;;;;;11023631;32;20026;-76
2022/05/19 17:52:43;;;;;;;0.82;0.70;;;29.30;49.80;;;;;;11018211;32;20014;-75
2022/05/19 17:58:45;;;;;;;4.12;1.40;;;29.00;50.70;;;;;;11017685;32;20026;-76
2022/05/19 18:04:47;;;;;;;1.00;0.82;;;28.70;51.80;;;;;;11017453;32;20390;-75
2022/05/19 18:10:50;;;;;;;1.33;0.90;;;28.10;52.90;;;;;;11017530;32;20026;-75
2022/05/19 18:23:14;;;;;;;1.60;0.82;;;27.40;54.20;;;;;;11018571;32;20026;-75
2022/05/19 18:29:16;;;;;;;1.05;0.68;;;27.20;54.60;;;;;;11025324;32;20120;-75
2022/05/19 18:35:18;;;;;;;3.72;0.75;;;27.10;55.20;;;;;;11025621;32;20046;-75
2022/05/19 18:47:41;;;;;;;1.37;0.73;;;26.80;55.60;;;;;;11016610;32;20030;-75
2022/05/19 18:53:48;;;;;;;2.30;0.95;;;26.70;55.80;;;;;;11013901;32;20034;-75
2022/05/19 18:59:51;;;;;;;1.83;0.93;;;26.50;56.00;;;;;;11016786;32;20014;-75
2022/05/19 19:05:53;;;;;;;1.67;0.85;;;26.40;56.30;;;;;;11017184;32;20018;-75
2022/05/19 19:11:55;;;;;;;0.40;0.40;;;26.30;56.60;;;;;;11022829;32;20064;-75
2022/05/19 19:17:57;;;;;;;0.70;0.55;;;26.30;56.90;;;;;;11023942;32;20023;-75
2022/05/19 19:23:59;;;;;;;0.90;0.55;;;26.20;57.10;;;;;;11019790;32;20018;-75
2022/05/19 19:30:07;;;;;;;0.93;0.60;;;26.10;57.40;;;;;;11021388;32;20018;-75
2022/05/19 19:36:09;;;;;;;2.58;1.35;;;25.90;57.60;;;;;;11010114;32;20022;-75
2022/05/19 19:42:11;;;;;;;1.15;0.70;;;25.80;58.10;;;;;;11018039;32;20044;-75
2022/05/19 19:48:14;;;;;;;0.75;0.68;;;25.80;58.50;;;;;;11017876;32;20048;-75
2022/05/19 19:54:17;;;;;;;2.70;1.25;;;25.70;58.70;;;;;;11022280;32;20099;-75
2022/05/19 20:00:21;;;;;;;1.62;0.88;;;25.70;59.10;;;;;;11022488;32;20018;-75
2022/05/19 20:06:24;;;;;;;2.62;1.10;;;25.60;59.30;;;;;;11022316;32;20359;-75
2022/05/19 20:12:27;;;;;;;0.40;0.40;;;25.50;59.50;;;;;;11022157;32;20080;-75
2022/05/19 20:18:29;;;;;;;1.15;0.70;;;25.50;59.90;;;;;;11020381;32;20022;-75
2022/05/19 20:24:32;;;;;;;2.00;1.05;;;25.50;60.50;;;;;;11021545;32;20018;-75
2022/05/19 20:30:35;;;;;;;2.20;0.70;;;25.40;61.20;;;;;;11021287;32;20431;-75
2022/05/19 20:36:37;;;;;;;2.22;1.00;;;25.30;62.20;;;;;;11021087;32;20313;-75
2022/05/19 20:42:40;;;;;;;0.90;0.70;;;25.20;63.50;;;;;;11016902;32;20323;-75
2022/05/19 20:48:43;;;;;;;3.47;1.20;;;25.10;63.90;;;;;;11020508;32;20424;-75
2022/05/19 20:54:46;;;;;;;0.60;0.57;;;25.10;63.30;;;;;;11020393;32;20401;-75
2022/05/19 21:00:49;;;;;;;1.33;0.85;;;24.90;64.30;;;;;;11018776;32;20014;-72
2022/05/19 21:06:55;;;;;;;2.28;1.02;;;24.80;64.40;;;;;;11020035;32;20033;-72
2022/05/19 21:12:58;;;;;;;1.60;1.10;;;24.60;64.50;;;;;;11019827;32;20022;-72
2022/05/19 21:19:06;;;;;;;1.55;0.98;;;24.50;64.70;;;;;;11019719;32;20018;-72
2022/05/19 21:31:33;;;;;;;1.20;1.00;;;24.40;65.00;;;;;;11018630;32;20018;-72
2022/05/19 21:37:35;;;;;;;1.90;1.40;;;24.30;64.70;;;;;;11019108;32;20018;-72
2022/05/19 21:43:38;;;;;;;5.20;2.62;;;24.30;65.00;;;;;;11018967;32;20436;-72
2022/05/19 21:49:40;;;;;;;3.65;2.08;;;24.30;65.20;;;;;;11018710;32;20040;-75
2022/05/19 21:55:44;;;;;;;4.30;1.77;;;24.20;65.50;;;;;;11018589;32;20011;-75
2022/05/19 22:01:46;;;;;;;4.25;2.58;;;24.20;65.60;;;;;;11018308;32;20080;-75
2022/05/19 22:07:48;;;;;;;3.65;1.70;;;24.10;65.50;;;;;;11015232;32;20022;-75
2022/05/19 22:13:51;;;;;;;4.68;1.70;;;24.00;66.20;;;;;;11013577;32;20037;-72
2022/05/19 22:19:53;;;;;;;2.10;1.20;;;24.00;66.30;;;;;;11017841;32;20026;-72
2022/05/19 22:25:57;;;;;;;3.45;2.22;;;23.90;66.40;;;;;;11017685;32;20018;-72
2022/05/19 22:31:59;;;;;;;1.62;1.20;;;23.80;66.60;;;;;;11017740;32;20333;-73
2022/05/19 22:38:01;;;;;;;1.90;1.10;;;23.60;66.80;;;;;;11017533;32;20068;-72
2022/05/19 22:44:23;;;;;;;2.53;1.65;;;23.60;67.10;;;;;;11021190;32;20034;-72
2022/05/19 22:50:28;;;;;;;2.50;1.55;;;23.50;67.10;;;;;;11024981;32;20402;-72
2022/05/19 22:56:30;;;;;;;3.42;1.30;;;23.60;66.90;;;;;;11024733;32;20030;-72
2022/05/19 23:02:32;;;;;;;2.50;1.48;;;23.70;66.90;;;;;;11024707;32;20019;-72
2022/05/19 23:08:34;;;;;;;3.12;1.60;;;23.60;67.10;;;;;;11022134;32;20034;-72
2022/05/19 23:14:36;;;;;;;4.12;1.48;;;23.50;67.50;;;;;;11024090;32;20050;-72
2022/05/19 23:20:39;;;;;;;1.42;1.27;;;23.50;67.60;;;;;;11023998;32;20030;-72
2022/05/19 23:26:41;;;;;;;3.10;1.95;;;23.30;68.00;;;;;;11019821;32;20022;-75
2022/05/19 23:39:04;;;;;;;2.62;1.20;;;23.30;67.90;;;;;;11023329;32;20018;-72
2022/05/19 23:45:10;;;;;;;1.52;1.20;;;23.20;68.20;;;;;;11023001;32;20053;-72
2022/05/19 23:51:15;;;;;;;2.37;1.33;;;23.10;68.40;;;;;;11009316;32;20018;-72
2022/05/19 23:57:17;;;;;;;3.05;1.77;;;23.10;68.70;;;;;;11022073;32;20049;-75
